Time;durP1;ratioP1;P1;durP2;ratioP2;P2;SDS_P1;SDS_P2;PMS_P1;PMS_P2;Temp;Humidity;BMP_temperature;BMP_pressure;BME280_temperature;BME280_humidity;BME280_pressure;Samples;Min_cycle;Max_cycle;Signal;HPM_P1;HPM_P2
2021/06/20 00:01:48;;;;;;;19.30;9.77;;;15.50;99.90;;;;;;4945461;29;20917;-77
2021/06/20 00:04:16;;;;;;;18.13;9.87;;;15.50;99.90;;;;;;4954377;29;20230;-77
2021/06/20 00:06:48;;;;;;;16.17;9.83;;;15.40;99.90;;;;;;4953709;29;20209;-77
2021/06/20 00:09:16;;;;;;;17.90;9.57;;;15.40;99.90;;;;;;4950876;29;20277;-77
2021/06/20 00:11:45;;;;;;;21.13;9.80;;;15.30;99.90;;;;;;4947133;29;20238;-77
2021/06/20 00:14:12;;;;;;;18.57;9.87;;;15.20;99.90;;;;;;4951279;29;20315;-77
2021/06/20 00:16:39;;;;;;;15.77;9.90;;;15.10;99.90;;;;;;4954056;29;20286;-76
2021/06/20 00:19:08;;;;;;;14.90;9.00;;;15.00;99.90;;;;;;4948114;29;20211;-77
2021/06/20 00:21:36;;;;;;;15.63;10.37;;;14.90;99.90;;;;;;4954443;29;20235;-77
2021/06/20 00:24:04;;;;;;;19.10;9.90;;;14.90;99.90;;;;;;4954537;29;20286;-76
2021/06/20 00:26:31;;;;;;;20.23;9.60;;;14.90;99.90;;;;;;4938352;29;20303;-77
2021/06/20 00:28:58;;;;;;;23.57;10.37;;;14.90;99.90;;;;;;4935279;29;20279;-76
2021/06/20 00:31:25;;;;;;;17.00;9.40;;;15.00;99.90;;;;;;4935391;29;20236;-77
2021/06/20 00:33:52;;;;;;;18.17;9.47;;;15.00;99.90;;;;;;4938848;29;20306;-76
2021/06/20 00:36:20;;;;;;;16.27;9.13;;;15.00;99.90;;;;;;4954553;29;20292;-77
2021/06/20 00:38:47;;;;;;;16.57;9.70;;;14.90;99.90;;;;;;4949592;29;20196;-76
2021/06/20 00:41:14;;;;;;;19.97;9.60;;;14.80;99.90;;;;;;4941185;29;20199;-76
2021/06/20 00:43:41;;;;;;;16.53;9.03;;;14.70;99.90;;;;;;4918363;29;20235;-76
2021/06/20 00:46:09;;;;;;;16.67;8.97;;;14.70;99.90;;;;;;4935143;29;20291;-77
2021/06/20 00:48:36;;;;;;;13.53;8.87;;;14.60;99.90;;;;;;4935735;29;20314;-77
2021/06/20 00:51:03;;;;;;;17.03;8.23;;;14.50;99.90;;;;;;4953266;29;20280;-77
2021/06/20 00:53:32;;;;;;;14.70;8.20;;;14.40;99.90;;;;;;4954413;29;20227;-77
2021/06/20 00:55:59;;;;;;;16.07;8.30;;;14.40;99.90;;;;;;4954266;29;20733;-76
2021/06/20 00:58:27;;;;;;;12.40;7.97;;;14.30;99.90;;;;;;4953948;29;20241;-77
2021/06/20 01:00:54;;;;;;;13.20;8.30;;;14.20;99.90;;;;;;4948014;29;20200;-76
2021/06/20 01:03:21;;;;;;;10.37;8.47;;;14.20;99.90;;;;;;4935124;29;20666;-76
2021/06/20 01:05:48;;;;;;;13.20;8.80;;;14.20;99.90;;;;;;4950542;29;20203;-76
2021/06/20 01:08:15;;;;;;;16.50;8.50;;;14.20;99.90;;;;;;4953988;29;20226;-76
2021/06/20 01:10:44;;;;;;;17.10;8.50;;;14.10;99.90;;;;;;4952886;28;20294;-76
2021/06/20 01:13:13;;;;;;;22.20;8.90;;;14.10;99.90;;;;;;4934635;29;20232;-76
2021/06/20 01:15:41;;;;;;;14.07;8.30;;;14.10;99.90;;;;;;4934969;29;20290;-76
2021/06/20 01:18:09;;;;;;;16.13;9.00;;;14.00;99.90;;;;;;4950794;29;20289;-77
2021/06/20 01:20:36;;;;;;;15.77;8.80;;;13.90;99.90;;;;;;4949820;29;20325;-77
2021/06/20 01:23:05;;;;;;;14.63;8.57;;;13.90;99.90;;;;;;4934878;29;20290;-77
2021/06/20 01:25:33;;;;;;;14.53;8.57;;;13.90;99.90;;;;;;4934808;29;20207;-76
2021/06/20 01:28:04;;;;;;;18.17;8.63;;;13.90;99.90;;;;;;4934467;29;20584;-76
2021/06/20 01:30:34;;;;;;;11.80;7.93;;;13.90;99.90;;;;;;4935052;29;20673;-77
2021/06/20 01:33:03;;;;;;;18.90;8.27;;;13.90;99.90;;;;;;4951371;29;20227;-76
2021/06/20 01:35:30;;;;;;;17.53;7.97;;;13.90;99.90;;;;;;4938454;29;20290;-76
2021/06/20 01:37:57;;;;;;;17.80;7.73;;;13.80;99.90;;;;;;4953788;29;20241;-76
2021/06/20 01:40:26;;;;;;;20.60;7.93;;;13.80;99.90;;;;;;4935521;29;20238;-76
2021/06/20 01:42:53;;;;;;;15.50;8.87;;;13.80;99.90;;;;;;4934480;29;20232;-77
2021/06/20 01:45:23;;;;;;;18.50;8.77;;;13.80;99.90;;;;;;4954034;29;20286;-76
2021/06/20 01:47:51;;;;;;;15.90;8.37;;;13.80;99.90;;;;;;4950596;29;20211;-76
2021/06/20 01:50:18;;;;;;;19.60;9.27;;;13.80;99.90;;;;;;4934358;29;20243;-77
2021/06/20 01:52:46;;;;;;;18.90;9.10;;;13.90;99.90;;;;;;4934729;29;20605;-77
2021/06/20 01:55:16;;;;;;;18.87;9.80;;;13.80;99.90;;;;;;4934305;29;20300;-77
2021/06/20 01:57:45;;;;;;;14.03;8.43;;;14.00;99.90;;;;;;4934167;29;20295;-76
2021/06/20 02:00:14;;;;;;;17.63;9.00;;;14.00;99.90;;;;;;4934974;29;20235;-77
2021/06/20 02:02:42;;;;;;;15.10;9.53;;;13.90;99.90;;;;;;4934711;29;20263;-77
2021/06/20 02:05:10;;;;;;;16.23;9.57;;;13.90;99.90;;;;;;4949446;29;20241;-76
2021/06/20 02:07:38;;;;;;;17.73;9.70;;;13.80;99.90;;;;;;4940053;29;20235;-76
2021/06/20 02:10:07;;;;;;;17.73;9.37;;;13.90;99.90;;;;;;4947461;29;20324;-76
2021/06/20 02:12:34;;;;;;;18.83;10.37;;;13.80;99.90;;;;;;4940667;29;20287;-76
2021/06/20 02:15:02;;;;;;;22.13;10.10;;;13.80;99.90;;;;;;4934296;29;20323;-78
2021/06/20 02:17:31;;;;;;;19.03;10.57;;;13.80;99.90;;;;;;4941497;29;20297;-76
2021/06/20 02:20:01;;;;;;;17.93;10.13;;;13.90;99.90;;;;;;4953245;29;20261;-77
2021/06/20 02:22:28;;;;;;;16.07;10.63;;;13.90;99.90;;;;;;4954376;28;20756;-76
2021/06/20 02:24:55;;;;;;;21.37;10.83;;;14.00;99.90;;;;;;4956184;29;20285;-76
2021/06/20 02:27:22;;;;;;;21.50;11.20;;;14.00;99.90;;;;;;4956546;29;20624;-77
2021/06/20 02:29:51;;;;;;;19.33;10.73;;;14.00;99.90;;;;;;4957332;29;20290;-77
2021/06/20 02:32:21;;;;;;;18.17;10.13;;;14.10;99.90;;;;;;4956842;29;20235;-77
2021/06/20 02:34:48;;;;;;;17.93;10.20;;;14.10;99.90;;;;;;4955955;29;20809;-77
2021/06/20 02:37:16;;;;;;;13.70;10.17;;;14.10;99.90;;;;;;4937630;29;20250;-76
2021/06/20 02:39:43;;;;;;;14.63;9.53;;;14.10;99.90;;;;;;4937521;29;20244;-77
2021/06/20 02:42:12;;;;;;;22.07;10.17;;;14.10;99.90;;;;;;4937573;29;20292;-77
2021/06/20 02:44:40;;;;;;;18.20;10.47;;;14.10;99.90;;;;;;4943823;29;20285;-76
2021/06/20 02:47:07;;;;;;;21.10;11.10;;;14.10;99.90;;;;;;4942375;29;20226;-77
2021/06/20 02:49:38;;;;;;;19.97;10.60;;;14.10;99.90;;;;;;4956526;28;20637;-77
2021/06/20 02:52:06;;;;;;;18.20;10.27;;;14.00;99.90;;;;;;4956160;29;20346;-76
2021/06/20 02:54:33;;;;;;;17.83;10.17;;;14.00;99.90;;;;;;4955690;29;20313;-76
2021/06/20 02:57:02;;;;;;;21.63;10.30;;;14.00;99.90;;;;;;4956294;29;20294;-77
2021/06/20 02:59:29;;;;;;;17.63;10.10;;;14.00;99.90;;;;;;4954932;29;20296;-76
2021/06/20 03:01:57;;;;;;;17.53;9.97;;;14.00;99.90;;;;;;4955806;29;20235;-77
2021/06/20 03:04:23;;;;;;;13.63;9.53;;;14.00;99.90;;;;;;4956253;29;20767;-76
2021/06/20 03:06:52;;;;;;;16.17;10.00;;;14.00;99.90;;;;;;4956533;29;20238;-76
2021/06/20 03:09:19;;;;;;;17.83;11.00;;;14.00;99.90;;;;;;4956240;29;20207;-76
2021/06/20 03:11:45;;;;;;;22.73;10.37;;;13.90;99.90;;;;;;4955719;28;20247;-76
2021/06/20 03:14:14;;;;;;;20.83;10.60;;;13.90;99.90;;;;;;4955577;29;20738;-76
2021/06/20 03:16:42;;;;;;;16.67;10.37;;;13.90;99.90;;;;;;4956132;29;20203;-76
2021/06/20 03:19:09;;;;;;;17.07;10.33;;;13.90;99.90;;;;;;4956058;29;20673;-76
2021/06/20 03:21:36;;;;;;;17.80;10.23;;;13.90;99.90;;;;;;4955619;29;20258;-77
2021/06/20 03:24:05;;;;;;;15.53;9.13;;;13.90;99.90;;;;;;4955884;29;20293;-76
2021/06/20 03:26:33;;;;;;;14.83;9.50;;;13.90;99.90;;;;;;4955797;29;20627;-77
2021/06/20 03:29:00;;;;;;;15.57;9.50;;;13.90;99.90;;;;;;4956172;29;20234;-77
2021/06/20 03:31:28;;;;;;;19.93;9.57;;;13.80;99.90;;;;;;4956269;29;20262;-77
2021/06/20 03:33:57;;;;;;;21.60;10.37;;;13.80;99.90;;;;;;4955395;28;20227;-77
2021/06/20 03:36:24;;;;;;;14.77;9.70;;;13.80;99.90;;;;;;4948275;29;20282;-77
2021/06/20 03:38:51;;;;;;;15.27;9.33;;;13.80;99.90;;;;;;4950941;29;20199;-77
2021/06/20 03:41:20;;;;;;;22.13;10.07;;;13.70;99.90;;;;;;4955978;29;20302;-76
2021/06/20 03:43:47;;;;;;;22.73;10.77;;;13.70;99.90;;;;;;4954595;29;20896;-77
2021/06/20 03:46:14;;;;;;;20.67;9.90;;;13.70;99.90;;;;;;4956017;29;20206;-76
2021/06/20 03:48:41;;;;;;;15.53;9.87;;;13.70;99.90;;;;;;4953448;29;20227;-77
2021/06/20 03:51:08;;;;;;;15.17;9.40;;;13.60;99.90;;;;;;4955362;29;20258;-76
2021/06/20 03:53:36;;;;;;;19.10;10.07;;;13.70;99.90;;;;;;4955712;29;20270;-76
2021/06/20 03:56:03;;;;;;;15.83;9.20;;;13.60;99.90;;;;;;4955243;29;20239;-76
2021/06/20 03:58:32;;;;;;;17.50;9.80;;;13.60;99.90;;;;;;4954582;29;20262;-77
2021/06/20 04:00:59;;;;;;;15.83;9.60;;;13.60;99.90;;;;;;4947914;29;20238;-77
2021/06/20 04:03:26;;;;;;;16.90;9.77;;;13.60;99.90;;;;;;4938861;29;20234;-76
2021/06/20 04:05:53;;;;;;;21.60;10.17;;;13.50;99.90;;;;;;4947205;29;20296;-76
2021/06/20 04:08:20;;;;;;;20.43;10.47;;;13.60;99.90;;;;;;4947852;29;20211;-77
2021/06/20 04:10:47;;;;;;;22.33;9.77;;;13.50;99.90;;;;;;4954757;29;20245;-77
2021/06/20 04:13:14;;;;;;;21.17;10.73;;;13.50;99.90;;;;;;4955008;29;20354;-76
2021/06/20 04:15:43;;;;;;;18.13;11.07;;;13.50;99.90;;;;;;4955179;29;20230;-77
2021/06/20 04:18:10;;;;;;;25.53;10.80;;;13.50;99.90;;;;;;4954062;29;20209;-76
2021/06/20 04:20:37;;;;;;;20.67;11.23;;;13.40;99.90;;;;;;4955147;29;20235;-76
2021/06/20 04:23:04;;;;;;;15.17;10.53;;;13.40;99.90;;;;;;4953942;29;20254;-76
2021/06/20 04:25:31;;;;;;;18.03;11.80;;;13.40;99.90;;;;;;4955107;29;20231;-76
2021/06/20 04:27:58;;;;;;;20.40;11.87;;;13.50;99.90;;;;;;4954833;29;20677;-76
2021/06/20 04:30:25;;;;;;;18.90;11.53;;;13.50;99.90;;;;;;4954570;29;20239;-77
2021/06/20 04:32:54;;;;;;;20.80;11.47;;;13.50;99.90;;;;;;4954341;29;20289;-77
2021/06/20 04:35:22;;;;;;;23.60;12.27;;;13.60;99.90;;;;;;4953689;29;20261;-77
2021/06/20 04:37:50;;;;;;;18.70;12.10;;;13.60;99.90;;;;;;4954755;29;20203;-76
2021/06/20 04:40:18;;;;;;;22.60;12.07;;;13.60;99.90;;;;;;4942527;29;20291;-77
2021/06/20 04:42:54;;;;;;;26.07;12.57;;;13.60;99.90;;;;;;4954885;29;20290;-77
2021/06/20 04:45:21;;;;;;;20.47;12.40;;;13.60;99.90;;;;;;4947096;28;20764;-77
2021/06/20 04:47:48;;;;;;;20.13;12.60;;;13.60;99.90;;;;;;4937456;29;20751;-77
2021/06/20 04:50:17;;;;;;;21.63;13.00;;;13.60;99.90;;;;;;4954370;29;20317;-77
2021/06/20 04:52:44;;;;;;;22.57;12.53;;;13.70;99.90;;;;;;4949450;29;20269;-77
2021/06/20 04:55:12;;;;;;;24.77;12.47;;;13.70;99.90;;;;;;4934696;29;20307;-77
2021/06/20 04:57:39;;;;;;;22.37;12.73;;;13.80;99.90;;;;;;4952732;29;20290;-77
2021/06/20 05:00:10;;;;;;;27.27;12.70;;;13.80;99.90;;;;;;4954274;29;20294;-76
2021/06/20 05:02:38;;;;;;;23.30;11.77;;;13.80;99.90;;;;;;4944704;29;20227;-76
2021/06/20 05:05:07;;;;;;;20.07;12.13;;;13.80;99.90;;;;;;4944655;29;20241;-76
2021/06/20 05:07:35;;;;;;;23.00;12.40;;;13.80;99.90;;;;;;4937940;29;20246;-77
2021/06/20 05:10:02;;;;;;;16.80;11.90;;;13.80;99.90;;;;;;4934885;29;20207;-77
2021/06/20 05:12:29;;;;;;;18.77;12.00;;;13.90;99.90;;;;;;4941520;28;20299;-77
2021/06/20 05:14:56;;;;;;;20.07;11.83;;;13.90;99.90;;;;;;4934802;29;20318;-77
2021/06/20 05:17:23;;;;;;;20.60;11.43;;;14.00;99.90;;;;;;4950005;29;20238;-77
2021/06/20 05:19:50;;;;;;;23.30;12.07;;;14.10;99.90;;;;;;4953688;29;20655;-77
2021/06/20 05:22:18;;;;;;;23.33;11.57;;;14.20;99.90;;;;;;4953743;29;20242;-77
2021/06/20 05:24:47;;;;;;;18.00;11.33;;;14.30;99.90;;;;;;4953884;29;20206;-76
2021/06/20 05:27:14;;;;;;;19.50;10.97;;;14.60;99.90;;;;;;4952524;29;20238;-77
2021/06/20 05:29:41;;;;;;;17.33;11.13;;;14.90;99.90;;;;;;4937440;29;20235;-77
2021/06/20 05:32:08;;;;;;;17.53;10.03;;;15.20;99.90;;;;;;4934608;29;20290;-77
2021/06/20 05:34:35;;;;;;;15.77;9.90;;;15.00;99.90;;;;;;4939733;29;20305;-77
2021/06/20 05:37:03;;;;;;;19.37;9.77;;;14.90;99.90;;;;;;4936029;29;20246;-77
2021/06/20 05:39:30;;;;;;;16.87;10.33;;;15.00;99.90;;;;;;4934788;29;20246;-77
2021/06/20 05:41:58;;;;;;;13.00;9.30;;;15.20;99.90;;;;;;4935008;29;20355;-77
2021/06/20 05:44:25;;;;;;;15.67;9.20;;;15.30;99.90;;;;;;4934558;29;20303;-77
2021/06/20 05:46:52;;;;;;;16.43;9.43;;;15.30;99.90;;;;;;4934781;29;20238;-77
2021/06/20 05:49:20;;;;;;;14.83;8.47;;;15.80;99.90;;;;;;4940140;29;20302;-77
2021/06/20 05:51:47;;;;;;;14.90;7.77;;;16.10;99.90;;;;;;4937677;29;20239;-77
2021/06/20 05:54:13;;;;;;;16.37;8.27;;;15.60;99.90;;;;;;4937782;29;20282;-77
2021/06/20 05:56:40;;;;;;;16.20;8.70;;;15.40;99.90;;;;;;4936148;29;20203;-77
2021/06/20 05:59:09;;;;;;;13.90;8.37;;;15.10;99.90;;;;;;4938543;29;21109;-77
2021/06/20 06:01:36;;;;;;;15.13;8.33;;;15.10;99.90;;;;;;4938659;29;20311;-77
2021/06/20 06:04:03;;;;;;;13.30;8.20;;;15.10;99.90;;;;;;4920901;29;20199;-77
2021/06/20 06:06:30;;;;;;;14.60;9.37;;;15.10;99.90;;;;;;4938521;29;20242;-77
2021/06/20 06:08:57;;;;;;;14.40;8.77;;;15.20;99.90;;;;;;4950597;29;20234;-77
2021/06/20 06:11:24;;;;;;;17.63;8.80;;;15.30;99.90;;;;;;4956212;29;20670;-77
2021/06/20 06:13:51;;;;;;;18.50;9.53;;;15.20;99.90;;;;;;4938320;29;20242;-77
2021/06/20 06:16:20;;;;;;;14.10;8.60;;;15.30;99.90;;;;;;4938299;29;20208;-77
2021/06/20 06:18:46;;;;;;;20.27;9.00;;;15.50;99.90;;;;;;4937946;29;20204;-77
2021/06/20 06:21:13;;;;;;;13.90;8.10;;;15.40;99.90;;;;;;4941671;29;20630;-77
2021/06/20 06:23:42;;;;;;;14.37;8.93;;;15.50;99.90;;;;;;4951143;29;20211;-77
2021/06/20 06:26:09;;;;;;;18.27;9.47;;;15.60;99.90;;;;;;4956738;29;20657;-77
2021/06/20 06:28:36;;;;;;;17.97;8.53;;;15.50;99.90;;;;;;4957158;29;20242;-77
2021/06/20 06:31:03;;;;;;;12.57;8.60;;;15.40;99.90;;;;;;4956966;29;20294;-77
2021/06/20 06:33:31;;;;;;;14.47;9.20;;;15.40;99.90;;;;;;4956472;29;20625;-77
2021/06/20 06:35:58;;;;;;;21.30;10.53;;;15.50;99.90;;;;;;4952503;29;20251;-77
2021/06/20 06:38:26;;;;;;;19.17;9.17;;;16.00;99.90;;;;;;4939698;29;20247;-77
2021/06/20 06:40:53;;;;;;;17.10;9.07;;;16.10;99.90;;;;;;4956796;29;20752;-77
2021/06/20 06:43:19;;;;;;;13.63;8.47;;;16.20;99.90;;;;;;4942629;29;20696;-77
2021/06/20 06:45:46;;;;;;;15.40;8.17;;;16.40;99.90;;;;;;4949336;29;20282;-77
2021/06/20 06:48:13;;;;;;;11.80;7.33;;;16.50;99.90;;;;;;4954892;29;20309;-77
2021/06/20 06:50:42;;;;;;;14.67;7.93;;;16.10;99.90;;;;;;4956667;29;20282;-77
2021/06/20 06:53:08;;;;;;;13.23;7.97;;;16.00;99.90;;;;;;4956566;29;20282;-77
2021/06/20 06:55:35;;;;;;;18.20;8.17;;;16.00;99.90;;;;;;4956734;29;20756;-77
2021/06/20 06:58:03;;;;;;;16.47;7.27;;;16.00;99.90;;;;;;4956228;29;20272;-77
2021/06/20 07:00:30;;;;;;;12.03;7.43;;;15.90;99.90;;;;;;4956593;29;20319;-77
2021/06/20 07:02:57;;;;;;;10.10;7.33;;;16.00;99.90;;;;;;4946349;29;20227;-80
2021/06/20 07:05:26;;;;;;;15.30;7.67;;;16.40;99.90;;;;;;4956314;29;20282;-79
2021/06/20 07:07:54;;;;;;;11.53;7.20;;;16.70;99.90;;;;;;4955655;28;20203;-80
2021/06/20 07:10:21;;;;;;;9.77;7.03;;;17.30;99.90;;;;;;4956494;29;20235;-78
2021/06/20 07:12:48;;;;;;;14.50;6.68;;;17.60;99.90;;;;;;4956157;28;20673;-79
2021/06/20 07:15:25;;;;;;;14.93;6.63;;;17.60;99.90;;;;;;4950239;28;20273;-78
2021/06/20 07:17:56;;;;;;;11.02;6.22;;;17.50;99.90;;;;;;4955587;29;20203;-78
2021/06/20 07:20:23;;;;;;;12.80;7.10;;;17.60;99.90;;;;;;4955611;29;20550;-79
2021/06/20 07:22:55;;;;;;;13.57;6.65;;;17.60;99.90;;;;;;4950993;29;20630;-78
2021/06/20 07:25:24;;;;;;;14.63;6.60;;;17.20;99.90;;;;;;4938071;29;20227;-78
2021/06/20 07:27:52;;;;;;;11.05;6.32;;;17.20;99.90;;;;;;4955048;29;20670;-78
2021/06/20 07:30:21;;;;;;;11.85;6.80;;;17.10;99.90;;;;;;4936492;29;20212;-79
2021/06/20 07:32:49;;;;;;;14.13;6.45;;;17.00;99.90;;;;;;4949370;29;20199;-79
2021/06/20 07:35:16;;;;;;;11.30;6.50;;;17.00;99.90;;;;;;4955235;29;20226;-78
2021/06/20 07:37:43;;;;;;;9.67;6.83;;;17.10;99.90;;;;;;4955056;29;20693;-79
2021/06/20 07:40:39;;;;;;;14.02;7.28;;;17.10;99.90;;;;;;4950334;29;20195;-79
2021/06/20 07:43:06;;;;;;;13.60;6.22;;;17.10;99.90;;;;;;4950203;29;20217;-78
2021/06/20 07:45:33;;;;;;;13.73;6.55;;;17.20;99.90;;;;;;4941024;28;20255;-79
2021/06/20 07:48:00;;;;;;;10.02;6.30;;;17.20;99.90;;;;;;4952389;28;20281;-80
2021/06/20 07:50:27;;;;;;;10.77;5.68;;;17.30;99.90;;;;;;4954643;29;20210;-79
2021/06/20 07:53:49;;;;;;;10.70;5.85;;;17.30;99.90;;;;;;4954764;29;20231;-80
2021/06/20 07:56:17;;;;;;;14.80;6.00;;;17.30;99.90;;;;;;4914310;29;20224;-79
2021/06/20 07:58:44;;;;;;;8.05;5.25;;;17.50;99.90;;;;;;4914666;29;20243;-80
2021/06/20 08:01:11;;;;;;;10.52;5.70;;;17.40;99.90;;;;;;4914334;29;20269;-79
2021/06/20 08:03:38;;;;;;;10.25;6.00;;;17.30;99.90;;;;;;4914553;29;20200;-79
2021/06/20 08:06:07;;;;;;;10.75;5.28;;;17.70;99.90;;;;;;4914629;29;20260;-79
2021/06/20 08:08:34;;;;;;;10.98;5.40;;;17.80;99.90;;;;;;4914426;29;20209;-80
2021/06/20 08:11:03;;;;;;;10.38;5.38;;;18.00;99.90;;;;;;4913390;29;20204;-80
2021/06/20 08:13:56;;;;;;;8.65;5.50;;;18.20;99.90;;;;;;4913640;29;20208;-81
2021/06/20 08:16:40;;;;;;;12.32;5.72;;;18.00;99.90;;;;;;4914243;29;20745;-81
2021/06/20 08:19:54;;;;;;;;;;;;;;;;;;;;;
2021/06/20 08:25:32;;;;;;;7.75;6.22;;;17.40;99.90;;;;;;4836920;29;20202;-82
2021/06/20 08:27:59;;;;;;;11.15;6.45;;;17.70;99.90;;;;;;4838879;29;20207;-82
2021/06/20 08:30:27;;;;;;;9.20;6.07;;;17.80;99.90;;;;;;4839410;29;20207;-82
2021/06/20 08:32:54;;;;;;;9.95;5.80;;;18.00;99.90;;;;;;4846266;29;20207;-82
2021/06/20 08:38:36;;;;;;;10.50;5.47;;;18.10;99.90;;;;;;4843449;29;20207;-82
2021/06/20 08:41:06;;;;;;;8.68;5.22;;;17.90;99.90;;;;;;4847158;29;20263;-82
2021/06/20 08:43:33;;;;;;;7.60;4.85;;;18.10;99.90;;;;;;4857490;29;20206;-82
2021/06/20 08:46:02;;;;;;;11.50;5.43;;;18.50;99.90;;;;;;4857955;29;20626;-82
2021/06/20 08:48:29;;;;;;;8.40;4.95;;;18.10;99.90;;;;;;4850569;29;20229;-81
2021/06/20 08:50:56;;;;;;;9.60;5.80;;;18.00;99.90;;;;;;4852824;29;20238;-82
2021/06/20 08:53:55;;;;;;;13.13;5.90;;;17.80;99.90;;;;;;4852633;29;20235;-81
2021/06/20 08:56:22;;;;;;;8.00;5.50;;;18.00;99.90;;;;;;4848068;29;20624;-83
2021/06/20 08:58:49;;;;;;;11.43;5.88;;;18.10;99.90;;;;;;4886429;29;20237;-79
2021/06/20 09:01:17;;;;;;;10.88;5.60;;;18.10;99.90;;;;;;4953667;29;20288;-80
2021/06/20 09:03:46;;;;;;;10.20;5.80;;;18.20;99.90;;;;;;4935150;29;20250;-79
2021/06/20 09:06:18;;;;;;;8.80;5.43;;;18.20;99.90;;;;;;4947986;29;20245;-81
2021/06/20 09:08:49;;;;;;;10.43;5.63;;;18.50;99.90;;;;;;4939525;29;20235;-80
2021/06/20 09:11:27;;;;;;;11.15;5.10;;;18.70;99.90;;;;;;4935888;29;20199;-78
2021/06/20 09:14:02;;;;;;;10.95;6.18;;;18.60;99.90;;;;;;4946674;29;20626;-79
2021/06/20 09:16:31;;;;;;;12.52;6.50;;;18.10;99.90;;;;;;4939144;29;20215;-79
2021/06/20 09:18:59;;;;;;;9.25;5.85;;;18.20;99.90;;;;;;4945288;29;20245;-79
2021/06/20 09:21:26;;;;;;;8.85;5.30;;;18.40;99.90;;;;;;4948015;29;20576;-79
2021/06/20 09:23:53;;;;;;;10.00;5.43;;;18.80;99.90;;;;;;4947228;29;20204;-80
2021/06/20 09:26:34;;;;;;;10.73;5.65;;;18.90;99.90;;;;;;4941861;29;20227;-80
2021/06/20 09:29:03;;;;;;;11.55;5.72;;;18.80;99.90;;;;;;4948122;29;20266;-79
2021/06/20 09:31:48;;;;;;;9.23;5.40;;;19.10;99.90;;;;;;4947038;29;20294;-80
2021/06/20 09:34:16;;;;;;;8.40;5.38;;;19.20;99.90;;;;;;4945622;29;20288;-80
2021/06/20 09:36:43;;;;;;;9.25;4.80;;;19.50;99.90;;;;;;4945587;29;20310;-79
2021/06/20 09:39:21;;;;;;;7.82;4.80;;;19.40;99.90;;;;;;4940580;29;20251;-80
2021/06/20 09:42:04;;;;;;;10.57;5.18;;;19.40;99.90;;;;;;4938799;29;20239;-80
2021/06/20 09:44:36;;;;;;;8.55;4.88;;;19.20;99.90;;;;;;4937569;29;20278;-80
2021/06/20 09:47:04;;;;;;;10.50;5.78;;;18.90;99.90;;;;;;4949342;29;20288;-79
2021/06/20 09:49:32;;;;;;;11.80;5.38;;;18.80;99.90;;;;;;4947111;28;20219;-80
2021/06/20 09:52:00;;;;;;;10.43;5.88;;;18.80;99.90;;;;;;4943238;29;20776;-80
2021/06/20 09:54:30;;;;;;;9.82;5.70;;;18.50;99.90;;;;;;4943936;29;20280;-80
2021/06/20 09:56:58;;;;;;;7.65;5.68;;;18.40;99.90;;;;;;4944215;29;20290;-79
2021/06/20 09:59:30;;;;;;;13.40;6.07;;;18.30;99.90;;;;;;4948978;29;20199;-79
2021/06/20 10:02:09;;;;;;;7.15;5.60;;;18.40;99.90;;;;;;4943445;29;20239;-80
2021/06/20 10:04:37;;;;;;;7.55;5.82;;;18.50;99.90;;;;;;4940340;29;20308;-79
2021/06/20 10:07:05;;;;;;;9.25;6.47;;;18.70;99.90;;;;;;4947857;29;20279;-80
2021/06/20 10:09:33;;;;;;;9.40;6.15;;;18.60;99.90;;;;;;4948942;29;20620;-80
2021/06/20 10:12:00;;;;;;;10.65;6.18;;;18.40;99.90;;;;;;4940255;29;20288;-78
2021/06/20 10:14:28;;;;;;;11.93;6.60;;;18.50;99.90;;;;;;4939549;29;20203;-78
2021/06/20 10:17:01;;;;;;;8.93;7.40;;;18.60;99.90;;;;;;4942844;29;20309;-79
2021/06/20 10:19:30;;;;;;;10.52;8.10;;;18.60;99.90;;;;;;4949603;28;20199;-78
2021/06/20 10:22:02;;;;;;;12.35;7.97;;;18.60;99.90;;;;;;4943126;29;20234;-78
2021/06/20 10:24:30;;;;;;;10.27;8.00;;;18.60;99.90;;;;;;4936019;29;20200;-78
2021/06/20 10:27:00;;;;;;;10.90;8.35;;;18.40;99.90;;;;;;4941839;29;20665;-78
2021/06/20 10:29:29;;;;;;;14.25;8.75;;;18.10;99.90;;;;;;4945295;29;20290;-80
2021/06/20 10:31:57;;;;;;;12.98;9.30;;;17.90;99.90;;;;;;4944652;28;20287;-81
2021/06/20 10:34:27;;;;;;;13.23;8.02;;;17.90;99.90;;;;;;4941541;29;20290;-79
2021/06/20 10:36:57;;;;;;;13.57;8.70;;;17.80;99.90;;;;;;4941812;29;20216;-78
2021/06/20 10:39:24;;;;;;;11.32;9.82;;;17.80;99.90;;;;;;4939983;29;20760;-78
2021/06/20 10:42:07;;;;;;;15.60;10.80;;;17.70;99.90;;;;;;4937881;29;20224;-79
2021/06/20 10:44:49;;;;;;;17.45;12.32;;;17.80;99.90;;;;;;4938088;29;20239;-78
2021/06/20 10:47:30;;;;;;;15.23;12.23;;;18.00;99.90;;;;;;4933458;29;20195;-79
2021/06/20 10:49:59;;;;;;;18.58;14.95;;;18.20;99.90;;;;;;4944139;29;20310;-79
2021/06/20 10:52:27;;;;;;;18.73;14.55;;;18.50;99.90;;;;;;4944159;29;20231;-79
2021/06/20 10:55:08;;;;;;;19.73;15.30;;;18.40;99.90;;;;;;4955504;29;20199;-79
2021/06/20 10:57:43;;;;;;;14.88;13.10;;;18.40;99.90;;;;;;4942909;29;20729;-79
2021/06/20 11:00:12;;;;;;;16.95;12.25;;;18.80;99.90;;;;;;4947565;29;20210;-78
2021/06/20 11:02:39;;;;;;;14.15;12.73;;;18.80;99.90;;;;;;4943615;29;20203;-79
2021/06/20 11:05:06;;;;;;;17.08;11.55;;;19.20;99.90;;;;;;4948625;29;20204;-78
2021/06/20 11:07:35;;;;;;;10.63;9.48;;;19.50;99.90;;;;;;4940456;29;20235;-79
2021/06/20 11:10:02;;;;;;;11.77;8.45;;;19.10;99.90;;;;;;4949428;29;20238;-79
2021/06/20 11:12:29;;;;;;;10.68;9.18;;;19.10;99.90;;;;;;4955463;29;20242;-79
2021/06/20 11:14:57;;;;;;;8.98;6.70;;;19.10;99.90;;;;;;4954587;29;20198;-78
2021/06/20 11:17:35;;;;;;;10.43;8.38;;;19.20;99.90;;;;;;4945839;29;20948;-79
2021/06/20 11:20:15;;;;;;;12.43;9.65;;;19.90;99.90;;;;;;4953281;29;20199;-79
2021/06/20 11:22:43;;;;;;;10.63;6.00;;;19.60;99.90;;;;;;4940758;29;20352;-80
2021/06/20 11:25:11;;;;;;;8.35;5.75;;;20.40;99.90;;;;;;4944538;29;20709;-80
2021/06/20 11:27:38;;;;;;;8.50;5.13;;;21.40;99.90;;;;;;4938340;29;20200;-79
2021/06/20 11:30:08;;;;;;;6.32;5.30;;;21.80;99.90;;;;;;4944377;29;20652;-79
2021/06/20 11:32:36;;;;;;;6.75;4.50;;;20.60;99.90;;;;;;4945743;29;20282;-79
2021/06/20 11:35:06;;;;;;;6.53;4.30;;;20.70;99.90;;;;;;4943968;29;20212;-80
2021/06/20 11:37:34;;;;;;;6.03;4.60;;;20.90;99.90;;;;;;4944971;29;20313;-79
2021/06/20 11:40:06;;;;;;;5.30;3.90;;;20.70;99.90;;;;;;4939615;29;20286;-81
2021/06/20 11:42:35;;;;;;;5.85;3.60;;;20.90;99.90;;;;;;4951161;29;20245;-80
2021/06/20 11:45:05;;;;;;;5.28;3.47;;;21.70;99.90;;;;;;4953376;29;20234;-80
2021/06/20 11:47:34;;;;;;;4.50;3.70;;;22.40;99.90;;;;;;4937283;29;20239;-80
2021/06/20 11:50:16;;;;;;;7.82;3.20;;;23.00;99.90;;;;;;4939789;29;20224;-81
2021/06/20 11:52:44;;;;;;;4.75;3.42;;;23.40;99.90;;;;;;4939154;29;20263;-81
2021/06/20 11:55:16;;;;;;;4.63;3.50;;;21.80;99.90;;;;;;4937687;29;20226;-81
2021/06/20 11:57:43;;;;;;;5.93;3.30;;;21.50;99.90;;;;;;4944410;28;20264;-80
2021/06/20 12:00:13;;;;;;;5.13;3.30;;;21.60;99.90;;;;;;4939612;29;20243;-79
2021/06/20 12:02:40;;;;;;;5.50;2.92;;;22.00;99.90;;;;;;4940511;29;20227;-80
2021/06/20 12:05:12;;;;;;;3.90;2.60;;;23.00;99.90;;;;;;4944647;29;20290;-80
2021/06/20 12:07:40;;;;;;;3.40;2.60;;;24.00;99.90;;;;;;4950127;29;20286;-80
2021/06/20 12:10:07;;;;;;;4.30;2.90;;;25.20;99.90;;;;;;4950086;28;20210;-80
2021/06/20 12:12:38;;;;;;;5.53;2.90;;;26.50;99.90;;;;;;4959366;28;20238;-80
2021/06/20 12:15:06;;;;;;;2.95;2.45;;;27.10;99.90;;;;;;4953437;28;20207;-80
2021/06/20 12:17:33;;;;;;;3.25;2.30;;;27.10;99.90;;;;;;4949414;28;20228;-80
2021/06/20 12:20:01;;;;;;;3.03;2.42;;;27.60;99.90;;;;;;4944268;28;20226;-80
2021/06/20 12:22:28;;;;;;;4.28;2.40;;;25.60;99.90;;;;;;4945259;29;20689;-81
2021/06/20 12:25:00;;;;;;;2.90;2.50;;;23.20;99.90;;;;;;4946130;28;20239;-80
2021/06/20 12:27:33;;;;;;;4.38;2.88;;;22.90;99.90;;;;;;4954637;28;20314;-80
2021/06/20 12:30:15;;;;;;;3.60;2.78;;;23.10;99.90;;;;;;4960335;28;20203;-80
2021/06/20 12:32:43;;;;;;;5.13;3.00;;;22.90;99.90;;;;;;4944851;29;20728;-80
2021/06/20 12:35:18;;;;;;;3.22;2.53;;;23.50;99.90;;;;;;4951858;28;20306;-80
2021/06/20 12:37:45;;;;;;;4.70;2.40;;;22.80;99.90;;;;;;4940467;29;20334;-80
2021/06/20 12:40:14;;;;;;;3.22;2.22;;;21.90;99.90;;;;;;4954005;28;20720;-80
2021/06/20 12:42:46;;;;;;;3.00;2.55;;;22.00;99.90;;;;;;4936424;28;20240;-81
2021/06/20 12:45:26;;;;;;;3.78;2.08;;;22.10;99.90;;;;;;4959367;28;20241;-80
2021/06/20 12:47:54;;;;;;;3.28;2.15;;;22.10;99.90;;;;;;4951733;28;20202;-80
2021/06/20 12:50:34;;;;;;;2.55;2.25;;;22.60;99.90;;;;;;4950452;28;20258;-80
2021/06/20 12:53:02;;;;;;;4.38;2.25;;;22.70;99.90;;;;;;4942444;29;20319;-80
2021/06/20 12:55:32;;;;;;;2.75;2.10;;;22.20;99.90;;;;;;4951239;29;20712;-80